Back to Top

Language: 

My Weather Underground Personal Weather Station Historical Data with Graphs...

Delerius Weather Station Historical Data
Daily Summary for January 2, 2018 Units:  Both    English   Metric
« Previous Day
Next Day »
Daily Weekly Monthly Yearly Custom
  High: Low: Average:
Temperature: 49.5 °F /  9.7 °C 39.6 °F /  4.2 °C 43.5 °F /  6.4 °C
Dew Point: 46.7 °F /  8.2 °C 34.7 °F /  1.5 °C 39.9 °F /  4.4 °C
Humidity: 95 % 74 % 87 %
Wind Speed: 29.0 mph /  46.7 km/h - 11.3 mph /  18.2 km/h
Wind Gust: 42.0 mph /  67.6 km/h - -
Wind:- - SW
Pressure: 29.71 in /  1006 hPa 28.96 in /  980.6 hPa -
Precipitation: 0.16 in /  4.06 mm    
Historical Graphs
 
 
Tabular Data for January 2, 2018
Time Temperature Dew Point Pressure Wind Wind Speed Wind Gust Humidity Rainfall Rate (Hourly) solar Conditions
00:01 42.6 °F /  5.9 °C 38.4 °F /  3.6 °C 29.68 in /  1005 hPa WNW 14.0 mph /  22.5 km/h 24.0 mph /  38.6 km/h 85 % 0.00 in /  0 mm 0 W/m2
00:02 42.6 °F /  5.9 °C 38.4 °F /  3.6 °C 29.68 in /  1005 hPa WNW 13.0 mph /  20.9 km/h 22.0 mph /  35.4 km/h 85 % 0.00 in /  0 mm 0 W/m2
00:07 42.6 °F /  5.9 °C 38.4 °F /  3.6 °C 29.68 in /  1005 hPa WNW 13.0 mph /  20.9 km/h 21.0 mph /  33.8 km/h 85 % 0.00 in /  0 mm 0 W/m2
00:08 42.6 °F /  5.9 °C 38.4 °F /  3.6 °C 29.69 in /  1005.3 hPa WNW 13.0 mph /  20.9 km/h 20.0 mph /  32.2 km/h 85 % 0.00 in /  0 mm 0 W/m2
00:13 42.6 °F /  5.9 °C 38.4 °F /  3.6 °C 29.69 in /  1005.3 hPa WNW 12.0 mph /  19.3 km/h 19.0 mph /  30.6 km/h 85 % 0.00 in /  0 mm 0 W/m2
00:17 42.6 °F /  5.9 °C 38.4 °F /  3.6 °C 29.69 in /  1005.3 hPa WNW 12.0 mph /  19.3 km/h 18.0 mph /  29 km/h 85 % 0.00 in /  0 mm 0 W/m2
00:20 42.6 °F /  5.9 °C 38.4 °F /  3.6 °C 29.69 in /  1005.3 hPa WNW 9.0 mph /  14.5 km/h 15.0 mph /  24.1 km/h 85 % 0.00 in /  0 mm 0 W/m2
00:23 42.6 °F /  5.9 °C 38.4 °F /  3.6 °C 29.69 in /  1005.3 hPa WNW 10.0 mph /  16.1 km/h 16.0 mph /  25.7 km/h 85 % 0.00 in /  0 mm 0 W/m2
00:27 42.6 °F /  5.9 °C 38.4 °F /  3.6 °C 29.69 in /  1005.3 hPa West 11.0 mph /  17.7 km/h 16.0 mph /  25.7 km/h 85 % 0.00 in /  0 mm 0 W/m2
00:32 42.8 °F /  6 °C 38.6 °F /  3.7 °C 29.69 in /  1005.3 hPa WNW 16.0 mph /  25.7 km/h 22.0 mph /  35.4 km/h 85 % 0.00 in /  0 mm 0 W/m2
00:33 43.0 °F /  6.1 °C 38.8 °F /  3.8 °C 29.69 in /  1005.3 hPa WNW 15.0 mph /  24.1 km/h 22.0 mph /  35.4 km/h 85 % 0.00 in /  0 mm 0 W/m2
00:38 43.0 °F /  6.1 °C 38.8 °F /  3.8 °C 29.69 in /  1005.3 hPa WNW 13.0 mph /  20.9 km/h 21.0 mph /  33.8 km/h 85 % 0.00 in /  0 mm 0 W/m2
00:43 43.0 °F /  6.1 °C 38.5 °F /  3.6 °C 29.69 in /  1005.3 hPa WNW 13.0 mph /  20.9 km/h 23.0 mph /  37 km/h 84 % 0.00 in /  0 mm 0 W/m2
00:47 43.0 °F /  6.1 °C 38.8 °F /  3.8 °C 29.69 in /  1005.3 hPa West 16.0 mph /  25.7 km/h 23.0 mph /  37 km/h 85 % 0.00 in /  0 mm 0 W/m2
00:52 43.0 °F /  6.1 °C 38.8 °F /  3.8 °C 29.70 in /  1005.6 hPa WNW 14.0 mph /  22.5 km/h 23.0 mph /  37 km/h 85 % 0.00 in /  0 mm 0 W/m2
00:55 43.0 °F /  6.1 °C 38.8 °F /  3.8 °C 29.69 in /  1005.3 hPa West 15.0 mph /  24.1 km/h 23.0 mph /  37 km/h 85 % 0.00 in /  0 mm 0 W/m2
01:00 43.0 °F /  6.1 °C 38.8 °F /  3.8 °C 29.70 in /  1005.6 hPa WNW 16.0 mph /  25.7 km/h 23.0 mph /  37 km/h 85 % 0.00 in /  0 mm 0 W/m2
01:02 43.0 °F /  6.1 °C 38.8 °F /  3.8 °C 29.70 in /  1005.6 hPa WNW 14.0 mph /  22.5 km/h 21.0 mph /  33.8 km/h 85 % 0.00 in /  0 mm 0 W/m2
01:03 43.0 °F /  6.1 °C 38.8 °F /  3.8 °C 29.70 in /  1005.6 hPa WNW 15.0 mph /  24.1 km/h 26.0 mph /  41.8 km/h 85 % 0.00 in /  0 mm 0 W/m2
01:08 42.8 °F /  6 °C 38.6 °F /  3.7 °C 29.70 in /  1005.6 hPa WNW 13.0 mph /  20.9 km/h 20.0 mph /  32.2 km/h 85 % 0.00 in /  0 mm 0 W/m2
01:13 42.6 °F /  5.9 °C 38.4 °F /  3.6 °C 29.70 in /  1005.6 hPa WNW 14.0 mph /  22.5 km/h 22.0 mph /  35.4 km/h 85 % 0.00 in /  0 mm 0 W/m2
01:14 42.6 °F /  5.9 °C 38.4 °F /  3.6 °C 29.70 in /  1005.6 hPa WNW 14.0 mph /  22.5 km/h 22.0 mph /  35.4 km/h 85 % 0.00 in /  0 mm 0 W/m2
01:19 42.6 °F /  5.9 °C 38.4 °F /  3.6 °C 29.70 in /  1005.6 hPa WNW 15.0 mph /  24.1 km/h 21.0 mph /  33.8 km/h 85 % 0.00 in /  0 mm 0 W/m2
01:24 42.6 °F /  5.9 °C 38.4 °F /  3.6 °C 29.70 in /  1005.6 hPa WNW 16.0 mph /  25.7 km/h 22.0 mph /  35.4 km/h 85 % 0.00 in /  0 mm 0 W/m2
01:27 42.6 °F /  5.9 °C 38.4 °F /  3.6 °C 29.70 in /  1005.6 hPa WNW 15.0 mph /  24.1 km/h 21.0 mph /  33.8 km/h 85 % 0.00 in /  0 mm 0 W/m2
01:29 42.4 °F /  5.8 °C 38.2 °F /  3.4 °C 29.70 in /  1005.6 hPa WNW 18.0 mph /  29 km/h 27.0 mph /  43.5 km/h 85 % 0.00 in /  0 mm 0 W/m2
01:32 42.6 °F /  5.9 °C 38.4 °F /  3.6 °C 29.70 in /  1005.6 hPa WNW 16.0 mph /  25.7 km/h 25.0 mph /  40.2 km/h 85 % 0.00 in /  0 mm 0 W/m2
01:37 42.6 °F /  5.9 °C 38.4 °F /  3.6 °C 29.70 in /  1005.6 hPa WNW 16.0 mph /  25.7 km/h 22.0 mph /  35.4 km/h 85 % 0.00 in /  0 mm 0 W/m2
01:42 42.6 °F /  5.9 °C 38.4 °F /  3.6 °C 29.70 in /  1005.6 hPa WNW 18.0 mph /  29 km/h 26.0 mph /  41.8 km/h 85 % 0.00 in /  0 mm 0 W/m2
01:45 42.6 °F /  5.9 °C 38.4 °F /  3.6 °C 29.69 in /  1005.3 hPa WNW 17.0 mph /  27.4 km/h 25.0 mph /  40.2 km/h 85 % 0.00 in /  0 mm 0 W/m2
01:49 42.6 °F /  5.9 °C 38.4 °F /  3.6 °C 29.70 in /  1005.6 hPa WNW 16.0 mph /  25.7 km/h 26.0 mph /  41.8 km/h 85 % 0.00 in /  0 mm 0 W/m2
01:52 42.4 °F /  5.8 °C 38.5 °F /  3.6 °C 29.70 in /  1005.6 hPa WNW 17.0 mph /  27.4 km/h 25.0 mph /  40.2 km/h 86 % 0.00 in /  0 mm 0 W/m2
01:57 42.4 °F /  5.8 °C 38.5 °F /  3.6 °C 29.70 in /  1005.6 hPa WNW 17.0 mph /  27.4 km/h 29.0 mph /  46.7 km/h 86 % 0.00 in /  0 mm 0 W/m2
01:58 42.4 °F /  5.8 °C 38.5 °F /  3.6 °C 29.70 in /  1005.6 hPa WNW 17.0 mph /  27.4 km/h 29.0 mph /  46.7 km/h 86 % 0.00 in /  0 mm 0 W/m2
02:02 42.4 °F /  5.8 °C 38.5 °F /  3.6 °C 29.70 in /  1005.6 hPa WNW 16.0 mph /  25.7 km/h 26.0 mph /  41.8 km/h 86 % 0.00 in /  0 mm 0 W/m2
02:03 42.4 °F /  5.8 °C 38.5 °F /  3.6 °C 29.70 in /  1005.6 hPa WNW 16.0 mph /  25.7 km/h 26.0 mph /  41.8 km/h 86 % 0.00 in /  0 mm 0 W/m2
02:08 42.4 °F /  5.8 °C 38.5 °F /  3.6 °C 29.70 in /  1005.6 hPa WNW 17.0 mph /  27.4 km/h 26.0 mph /  41.8 km/h 86 % 0.00 in /  0 mm 0 W/m2
02:09 42.4 °F /  5.8 °C 38.5 °F /  3.6 °C 29.70 in /  1005.6 hPa WNW 16.0 mph /  25.7 km/h 26.0 mph /  41.8 km/h 86 % 0.00 in /  0 mm 0 W/m2
02:13 42.4 °F /  5.8 °C 38.5 °F /  3.6 °C 29.70 in /  1005.6 hPa WNW 15.0 mph /  24.1 km/h 22.0 mph /  35.4 km/h 86 % 0.00 in /  0 mm 0 W/m2
02:14 42.4 °F /  5.8 °C 38.5 °F /  3.6 °C 29.70 in /  1005.6 hPa WNW 13.0 mph /  20.9 km/h 22.0 mph /  35.4 km/h 86 % 0.00 in /  0 mm 0 W/m2
02:19 42.4 °F /  5.8 °C 38.5 °F /  3.6 °C 29.70 in /  1005.6 hPa WNW 15.0 mph /  24.1 km/h 25.0 mph /  40.2 km/h 86 % 0.00 in /  0 mm 0 W/m2
02:26 42.3 °F /  5.7 °C 38.4 °F /  3.6 °C 29.71 in /  1006 hPa WNW 13.0 mph /  20.9 km/h 20.0 mph /  32.2 km/h 86 % 0.00 in /  0 mm 0 W/m2
02:31 42.3 °F /  5.7 °C 38.7 °F /  3.7 °C 29.71 in /  1006 hPa WNW 12.0 mph /  19.3 km/h 16.0 mph /  25.7 km/h 87 % 0.00 in /  0 mm 0 W/m2
02:32 42.3 °F /  5.7 °C 38.7 °F /  3.7 °C 29.71 in /  1006 hPa WNW 12.0 mph /  19.3 km/h 20.0 mph /  32.2 km/h 87 % 0.00 in /  0 mm 0 W/m2
02:33 42.3 °F /  5.7 °C 38.7 °F /  3.7 °C 29.70 in /  1005.6 hPa WNW 12.0 mph /  19.3 km/h 20.0 mph /  32.2 km/h 87 % 0.00 in /  0 mm 0 W/m2
02:38 42.3 °F /  5.7 °C 38.7 °F /  3.7 °C 29.70 in /  1005.6 hPa WNW 13.0 mph /  20.9 km/h 22.0 mph /  35.4 km/h 87 % 0.00 in /  0 mm 0 W/m2
02:46 42.3 °F /  5.7 °C 38.7 °F /  3.7 °C 29.70 in /  1005.6 hPa WNW 16.0 mph /  25.7 km/h 26.0 mph /  41.8 km/h 87 % 0.00 in /  0 mm 0 W/m2
02:47 42.3 °F /  5.7 °C 38.7 °F /  3.7 °C 29.70 in /  1005.6 hPa WNW 17.0 mph /  27.4 km/h 26.0 mph /  41.8 km/h 87 % 0.00 in /  0 mm 0 W/m2
02:52 42.3 °F /  5.7 °C 38.7 °F /  3.7 °C 29.70 in /  1005.6 hPa WNW 15.0 mph /  24.1 km/h 25.0 mph /  40.2 km/h 87 % 0.00 in /  0 mm 0 W/m2
02:57 42.3 °F /  5.7 °C 38.7 °F /  3.7 °C 29.71 in /  1006 hPa WNW 15.0 mph /  24.1 km/h 28.0 mph /  45.1 km/h 87 % 0.00 in /  0 mm 0 W/m2
03:02 42.3 °F /  5.7 °C 38.4 °F /  3.6 °C 29.71 in /  1006 hPa WNW 14.0 mph /  22.5 km/h 21.0 mph /  33.8 km/h 86 % 0.00 in /  0 mm 0 W/m2
03:09 42.3 °F /  5.7 °C 38.4 °F /  3.6 °C 29.71 in /  1006 hPa WNW 14.0 mph /  22.5 km/h 22.0 mph /  35.4 km/h 86 % 0.00 in /  0 mm 0 W/m2
03:14 42.3 °F /  5.7 °C 38.4 °F /  3.6 °C 29.71 in /  1006 hPa WNW 16.0 mph /  25.7 km/h 22.0 mph /  35.4 km/h 86 % 0.00 in /  0 mm 0 W/m2
03:15 42.3 °F /  5.7 °C 38.4 °F /  3.6 °C 29.71 in /  1006 hPa WNW 17.0 mph /  27.4 km/h 25.0 mph /  40.2 km/h 86 % 0.00 in /  0 mm 0 W/m2
03:22 42.3 °F /  5.7 °C 38.4 °F /  3.6 °C 29.70 in /  1005.6 hPa WNW 15.0 mph /  24.1 km/h 24.0 mph /  38.6 km/h 86 % 0.00 in /  0 mm 0 W/m2
03:27 42.3 °F /  5.7 °C 38.4 °F /  3.6 °C 29.70 in /  1005.6 hPa WNW 16.0 mph /  25.7 km/h 24.0 mph /  38.6 km/h 86 % 0.00 in /  0 mm 0 W/m2
03:29 42.3 °F /  5.7 °C 38.4 °F /  3.6 °C 29.70 in /  1005.6 hPa WNW 14.0 mph /  22.5 km/h 22.0 mph /  35.4 km/h 86 % 0.00 in /  0 mm 0 W/m2
03:34 42.3 °F /  5.7 °C 38.4 °F /  3.6 °C 29.70 in /  1005.6 hPa WNW 15.0 mph /  24.1 km/h 25.0 mph /  40.2 km/h 86 % 0.00 in /  0 mm 0 W/m2
03:39 42.3 °F /  5.7 °C 38.4 °F /  3.6 °C 29.70 in /  1005.6 hPa WNW 17.0 mph /  27.4 km/h 24.0 mph /  38.6 km/h 86 % 0.00 in /  0 mm 0 W/m2
03:44 42.3 °F /  5.7 °C 38.1 °F /  3.4 °C 29.69 in /  1005.3 hPa WNW 14.0 mph /  22.5 km/h 22.0 mph /  35.4 km/h 85 % 0.00 in /  0 mm 0 W/m2
03:45 42.3 °F /  5.7 °C 38.4 °F /  3.6 °C 29.69 in /  1005.3 hPa WNW 13.0 mph /  20.9 km/h 18.0 mph /  29 km/h 86 % 0.00 in /  0 mm 0 W/m2
03:50 42.3 °F /  5.7 °C 38.1 °F /  3.4 °C 29.70 in /  1005.6 hPa WNW 15.0 mph /  24.1 km/h 25.0 mph /  40.2 km/h 85 % 0.00 in /  0 mm 0 W/m2
03:51 42.3 °F /  5.7 °C 38.1 °F /  3.4 °C 29.70 in /  1005.6 hPa WNW 15.0 mph /  24.1 km/h 25.0 mph /  40.2 km/h 85 % 0.00 in /  0 mm 0 W/m2
03:55 42.3 °F /  5.7 °C 38.1 °F /  3.4 °C 29.70 in /  1005.6 hPa WNW 12.0 mph /  19.3 km/h 20.0 mph /  32.2 km/h 85 % 0.00 in /  0 mm 0 W/m2
03:57 42.3 °F /  5.7 °C 38.1 °F /  3.4 °C 29.70 in /  1005.6 hPa WNW 13.0 mph /  20.9 km/h 21.0 mph /  33.8 km/h 85 % 0.00 in /  0 mm 0 W/m2
04:02 42.3 °F /  5.7 °C 38.1 °F /  3.4 °C 29.70 in /  1005.6 hPa West 12.0 mph /  19.3 km/h 19.0 mph /  30.6 km/h 85 % 0.00 in /  0 mm 0 W/m2
04:03 42.3 °F /  5.7 °C 38.1 °F /  3.4 °C 29.70 in /  1005.6 hPa West 12.0 mph /  19.3 km/h 19.0 mph /  30.6 km/h 85 % 0.00 in /  0 mm 0 W/m2
04:08 42.1 °F /  5.6 °C 37.6 °F /  3.1 °C 29.70 in /  1005.6 hPa WNW 11.0 mph /  17.7 km/h 18.0 mph /  29 km/h 84 % 0.00 in /  0 mm 0 W/m2
04:09 42.1 °F /  5.6 °C 37.6 °F /  3.1 °C 29.70 in /  1005.6 hPa West 11.0 mph /  17.7 km/h 16.0 mph /  25.7 km/h 84 % 0.00 in /  0 mm 0 W/m2
04:10 42.1 °F /  5.6 °C 37.6 °F /  3.1 °C 29.70 in /  1005.6 hPa West 10.0 mph /  16.1 km/h 14.0 mph /  22.5 km/h 84 % 0.00 in /  0 mm 0 W/m2
04:15 41.9 °F /  5.5 °C 37.7 °F /  3.2 °C 29.70 in /  1005.6 hPa West 13.0 mph /  20.9 km/h 19.0 mph /  30.6 km/h 85 % 0.00 in /  0 mm 0 W/m2
04:17 41.9 °F /  5.5 °C 37.7 °F /  3.2 °C 29.71 in /  1006 hPa West 16.0 mph /  25.7 km/h 24.0 mph /  38.6 km/h 85 % 0.00 in /  0 mm 0 W/m2
04:21 41.9 °F /  5.5 °C 37.7 °F /  3.2 °C 29.71 in /  1006 hPa West 14.0 mph /  22.5 km/h 23.0 mph /  37 km/h 85 % 0.00 in /  0 mm 0 W/m2
04:26 41.7 °F /  5.4 °C 37.5 °F /  3.1 °C 29.71 in /  1006 hPa West 13.0 mph /  20.9 km/h 20.0 mph /  32.2 km/h 85 % 0.00 in /  0 mm 0 W/m2
04:29 41.7 °F /  5.4 °C 37.5 °F /  3.1 °C 29.71 in /  1006 hPa West 14.0 mph /  22.5 km/h 21.0 mph /  33.8 km/h 85 % 0.00 in /  0 mm 0 W/m2
04:35 41.7 °F /  5.4 °C 37.5 °F /  3.1 °C 29.71 in /  1006 hPa West 18.0 mph /  29 km/h 27.0 mph /  43.5 km/h 85 % 0.00 in /  0 mm 0 W/m2
04:40 41.5 °F /  5.3 °C 37.7 °F /  3.2 °C 29.71 in /  1006 hPa West 16.0 mph /  25.7 km/h 22.0 mph /  35.4 km/h 86 % 0.00 in /  0 mm 0 W/m2
04:46 41.5 °F /  5.3 °C 37.7 °F /  3.2 °C 29.71 in /  1006 hPa West 13.0 mph /  20.9 km/h 23.0 mph /  37 km/h 86 % 0.00 in /  0 mm 0 W/m2
04:51 41.4 °F /  5.2 °C 37.5 °F /  3.1 °C 29.71 in /  1006 hPa West 14.0 mph /  22.5 km/h 23.0 mph /  37 km/h 86 % 0.00 in /  0 mm 0 W/m2
04:52 41.4 °F /  5.2 °C 37.5 °F /  3.1 °C 29.71 in /  1006 hPa West 14.0 mph /  22.5 km/h 23.0 mph /  37 km/h 86 % 0.00 in /  0 mm 0 W/m2
04:57 41.2 °F /  5.1 °C 37.6 °F /  3.1 °C 29.71 in /  1006 hPa West 12.0 mph /  19.3 km/h 19.0 mph /  30.6 km/h 87 % 0.00 in /  0 mm 0 W/m2
04:58 41.2 °F /  5.1 °C 37.6 °F /  3.1 °C 29.71 in /  1006 hPa West 13.0 mph /  20.9 km/h 19.0 mph /  30.6 km/h 87 % 0.00 in /  0 mm 0 W/m2
05:03 41.0 °F /  5 °C 37.4 °F /  3 °C 29.70 in /  1005.6 hPa West 12.0 mph /  19.3 km/h 16.0 mph /  25.7 km/h 87 % 0.00 in /  0 mm 0 W/m2
05:04 41.0 °F /  5 °C 37.4 °F /  3 °C 29.70 in /  1005.6 hPa West 12.0 mph /  19.3 km/h 18.0 mph /  29 km/h 87 % 0.00 in /  0 mm 0 W/m2
05:05 41.0 °F /  5 °C 37.4 °F /  3 °C 29.70 in /  1005.6 hPa West 13.0 mph /  20.9 km/h 19.0 mph /  30.6 km/h 87 % 0.00 in /  0 mm 0 W/m2
05:10 40.6 °F /  4.8 °C 37.1 °F /  2.8 °C 29.70 in /  1005.6 hPa West 13.0 mph /  20.9 km/h 18.0 mph /  29 km/h 87 % 0.00 in /  0 mm 0 W/m2
05:11 40.6 °F /  4.8 °C 37.1 °F /  2.8 °C 29.70 in /  1005.6 hPa West 12.0 mph /  19.3 km/h 18.0 mph /  29 km/h 87 % 0.00 in /  0 mm 0 W/m2
05:16 40.6 °F /  4.8 °C 37.4 °F /  3 °C 29.71 in /  1006 hPa West 13.0 mph /  20.9 km/h 22.0 mph /  35.4 km/h 88 % 0.00 in /  0 mm 0 W/m2
05:17 40.6 °F /  4.8 °C 37.1 °F /  2.8 °C 29.71 in /  1006 hPa West 12.0 mph /  19.3 km/h 16.0 mph /  25.7 km/h 87 % 0.00 in /  0 mm 0 W/m2
05:22 40.5 °F /  4.7 °C 36.9 °F /  2.7 °C 29.71 in /  1006 hPa West 14.0 mph /  22.5 km/h 22.0 mph /  35.4 km/h 87 % 0.00 in /  0 mm 0 W/m2
05:27 40.6 °F /  4.8 °C 37.1 °F /  2.8 °C 29.71 in /  1006 hPa West 12.0 mph /  19.3 km/h 21.0 mph /  33.8 km/h 87 % 0.00 in /  0 mm 0 W/m2
05:30 40.5 °F /  4.7 °C 36.9 °F /  2.7 °C 29.71 in /  1006 hPa West 12.0 mph /  19.3 km/h 19.0 mph /  30.6 km/h 87 % 0.00 in /  0 mm 0 W/m2
05:31 40.5 °F /  4.7 °C 36.9 °F /  2.7 °C 29.71 in /  1006 hPa West 11.0 mph /  17.7 km/h 19.0 mph /  30.6 km/h 87 % 0.00 in /  0 mm 0 W/m2
05:36 40.5 °F /  4.7 °C 36.9 °F /  2.7 °C 29.71 in /  1006 hPa West 12.0 mph /  19.3 km/h 19.0 mph /  30.6 km/h 87 % 0.00 in /  0 mm 0 W/m2
05:38 40.5 °F /  4.7 °C 36.9 °F /  2.7 °C 29.71 in /  1006 hPa West 11.0 mph /  17.7 km/h 18.0 mph /  29 km/h 87 % 0.00 in /  0 mm 0 W/m2
05:47 40.3 °F /  4.6 °C 36.7 °F /  2.6 °C 29.71 in /  1006 hPa West 15.0 mph /  24.1 km/h 22.0 mph /  35.4 km/h 87 % 0.00 in /  0 mm 0 W/m2
05:50 40.3 °F /  4.6 °C 36.7 °F /  2.6 °C 29.71 in /  1006 hPa West 11.0 mph /  17.7 km/h 19.0 mph /  30.6 km/h 87 % 0.00 in /  0 mm 0 W/m2
05:52 40.3 °F /  4.6 °C 36.7 °F /  2.6 °C 29.71 in /  1006 hPa WSW 11.0 mph /  17.7 km/h 18.0 mph /  29 km/h 87 % 0.00 in /  0 mm 0 W/m2
05:57 40.3 °F /  4.6 °C 36.7 °F /  2.6 °C 29.71 in /  1006 hPa West 10.0 mph /  16.1 km/h 18.0 mph /  29 km/h 87 % 0.00 in /  0 mm 0 W/m2
06:01 40.3 °F /  4.6 °C 36.7 °F /  2.6 °C 29.71 in /  1006 hPa WSW 12.0 mph /  19.3 km/h 22.0 mph /  35.4 km/h 87 % 0.00 in /  0 mm 0 W/m2
06:06 40.3 °F /  4.6 °C 36.7 °F /  2.6 °C 29.71 in /  1006 hPa West 12.0 mph /  19.3 km/h 20.0 mph /  32.2 km/h 87 % 0.00 in /  0 mm 0 W/m2
06:08 40.3 °F /  4.6 °C 36.7 °F /  2.6 °C 29.71 in /  1006 hPa West 11.0 mph /  17.7 km/h 20.0 mph /  32.2 km/h 87 % 0.00 in /  0 mm 0 W/m2
06:10 40.1 °F /  4.5 °C 36.2 °F /  2.3 °C 29.71 in /  1006 hPa West 8.0 mph /  12.9 km/h 13.0 mph /  20.9 km/h 86 % 0.00 in /  0 mm 0 W/m2
06:13 39.9 °F /  4.4 °C 36.1 °F /  2.3 °C 29.71 in /  1006 hPa West 10.0 mph /  16.1 km/h 19.0 mph /  30.6 km/h 86 % 0.00 in /  0 mm 0 W/m2
06:18 39.9 °F /  4.4 °C 36.1 °F /  2.3 °C 29.71 in /  1006 hPa West 10.0 mph /  16.1 km/h 15.0 mph /  24.1 km/h 86 % 0.00 in /  0 mm 0 W/m2
06:23 39.9 °F /  4.4 °C 36.1 °F /  2.3 °C 29.71 in /  1006 hPa West 9.0 mph /  14.5 km/h 15.0 mph /  24.1 km/h 86 % 0.00 in /  0 mm 0 W/m2
06:29 39.9 °F /  4.4 °C 36.1 °F /  2.3 °C 29.70 in /  1005.6 hPa West 7.0 mph /  11.3 km/h 11.0 mph /  17.7 km/h 86 % 0.00 in /  0 mm 0 W/m2
06:35 39.9 °F /  4.4 °C 36.1 °F /  2.3 °C 29.70 in /  1005.6 hPa WNW 8.0 mph /  12.9 km/h 12.0 mph /  19.3 km/h 86 % 0.00 in /  0 mm 0 W/m2
06:40 39.7 °F /  4.3 °C 35.9 °F /  2.2 °C 29.70 in /  1005.6 hPa WNW 8.0 mph /  12.9 km/h 11.0 mph /  17.7 km/h 86 % 0.00 in /  0 mm 0 W/m2
06:46 39.6 °F /  4.2 °C 35.7 °F /  2.1 °C 29.70 in /  1005.6 hPa West 8.0 mph /  12.9 km/h 11.0 mph /  17.7 km/h 86 % 0.00 in /  0 mm 0 W/m2
06:51 39.6 °F /  4.2 °C 35.7 °F /  2.1 °C 29.70 in /  1005.6 hPa WNW 8.0 mph /  12.9 km/h 12.0 mph /  19.3 km/h 86 % 0.00 in /  0 mm 0 W/m2
06:53 39.6 °F /  4.2 °C 35.7 °F /  2.1 °C 29.70 in /  1005.6 hPa West 8.0 mph /  12.9 km/h 11.0 mph /  17.7 km/h 86 % 0.00 in /  0 mm 0 W/m2
06:56 39.6 °F /  4.2 °C 35.7 °F /  2.1 °C 29.70 in /  1005.6 hPa West 8.0 mph /  12.9 km/h 12.0 mph /  19.3 km/h 86 % 0.00 in /  0 mm 0 W/m2
06:58 39.6 °F /  4.2 °C 35.7 °F /  2.1 °C 29.70 in /  1005.6 hPa West 7.0 mph /  11.3 km/h 11.0 mph /  17.7 km/h 86 % 0.00 in /  0 mm 0 W/m2
07:03 39.6 °F /  4.2 °C 35.7 °F /  2.1 °C 29.70 in /  1005.6 hPa SW 1.0 mph /  1.6 km/h 4.0 mph /  6.4 km/h 86 % 0.00 in /  0 mm 0 W/m2
07:06 39.6 °F /  4.2 °C 35.7 °F /  2.1 °C 29.71 in /  1006 hPa WSW 1.0 mph /  1.6 km/h 7.0 mph /  11.3 km/h 86 % 0.00 in /  0 mm 0 W/m2
07:11 39.6 °F /  4.2 °C 35.7 °F /  2.1 °C 29.71 in /  1006 hPa WSW 5.0 mph /  8 km/h 12.0 mph /  19.3 km/h 86 % 0.00 in /  0 mm 0 W/m2
07:15 39.7 °F /  4.3 °C 35.6 °F /  2 °C 29.70 in /  1005.6 hPa SW 3.0 mph /  4.8 km/h 8.0 mph /  12.9 km/h 85 % 0.00 in /  0 mm 0 W/m2
07:16 39.7 °F /  4.3 °C 35.6 °F /  2 °C 29.70 in /  1005.6 hPa SW 2.0 mph /  3.2 km/h 6.0 mph /  9.7 km/h 85 % 0.00 in /  0 mm 0 W/m2
07:21 39.7 °F /  4.3 °C 35.6 °F /  2 °C 29.70 in /  1005.6 hPa WSW 4.0 mph /  6.4 km/h 8.0 mph /  12.9 km/h 85 % 0.00 in /  0 mm 0 W/m2
07:28 39.9 °F /  4.4 °C 35.8 °F /  2.1 °C 29.71 in /  1006 hPa SW 1.0 mph /  1.6 km/h 2.0 mph /  3.2 km/h 85 % 0.00 in /  0 mm 0 W/m2
07:31 39.7 °F /  4.3 °C 35.6 °F /  2 °C 29.70 in /  1005.6 hPa South 1.0 mph /  1.6 km/h 4.0 mph /  6.4 km/h 85 % 0.00 in /  0 mm 0 W/m2
07:33 39.7 °F /  4.3 °C 35.6 °F /  2 °C 29.71 in /  1006 hPa SSE 1.0 mph /  1.6 km/h 4.0 mph /  6.4 km/h 85 % 0.00 in /  0 mm 0 W/m2
07:38 39.7 °F /  4.3 °C 35.3 °F /  1.8 °C 29.71 in /  1006 hPa SSE 1.0 mph /  1.6 km/h 2.0 mph /  3.2 km/h 84 % 0.00 in /  0 mm 0 W/m2
07:39 39.7 °F /  4.3 °C 35.3 °F /  1.8 °C 29.71 in /  1006 hPa SSE 1.0 mph /  1.6 km/h 2.0 mph /  3.2 km/h 84 % 0.00 in /  0 mm 0 W/m2
07:44 39.6 °F /  4.2 °C 35.4 °F /  1.9 °C 29.70 in /  1005.6 hPa South 4.0 mph /  6.4 km/h 8.0 mph /  12.9 km/h 85 % 0.00 in /  0 mm 0 W/m2
07:46 39.6 °F /  4.2 °C 35.4 °F /  1.9 °C 29.70 in /  1005.6 hPa South 5.0 mph /  8 km/h 8.0 mph /  12.9 km/h 85 % 0.00 in /  0 mm 0 W/m2
07:52 39.7 °F /  4.3 °C 35.3 °F /  1.8 °C 29.70 in /  1005.6 hPa South 3.0 mph /  4.8 km/h 6.0 mph /  9.7 km/h 84 % 0.00 in /  0 mm 0 W/m2
07:57 39.7 °F /  4.3 °C 35.3 °F /  1.8 °C 29.70 in /  1005.6 hPa South 5.0 mph /  8 km/h 7.0 mph /  11.3 km/h 84 % 0.00 in /  0 mm 0 W/m2
08:02 39.9 °F /  4.4 °C 35.5 °F /  1.9 °C 29.71 in /  1006 hPa South 4.0 mph /  6.4 km/h 8.0 mph /  12.9 km/h 84 % 0.00 in /  0 mm 0 W/m2
08:04 39.9 °F /  4.4 °C 35.2 °F /  1.8 °C 29.71 in /  1006 hPa South 4.0 mph /  6.4 km/h 9.0 mph /  14.5 km/h 83 % 0.00 in /  0 mm 0 W/m2
08:09 39.9 °F /  4.4 °C 35.2 °F /  1.8 °C 29.71 in /  1006 hPa SSE 4.0 mph /  6.4 km/h 6.0 mph /  9.7 km/h 83 % 0.00 in /  0 mm 0 W/m2
08:10 39.7 °F /  4.3 °C 35.0 °F /  1.7 °C 29.71 in /  1006 hPa SSE 4.0 mph /  6.4 km/h 7.0 mph /  11.3 km/h 83 % 0.00 in /  0 mm 0 W/m2
08:15 39.7 °F /  4.3 °C 35.0 °F /  1.7 °C 29.70 in /  1005.6 hPa SSE 3.0 mph /  4.8 km/h 6.0 mph /  9.7 km/h 83 % 0.00 in /  0 mm 0 W/m2
08:17 39.7 °F /  4.3 °C 35.0 °F /  1.7 °C 29.70 in /  1005.6 hPa SSE 4.0 mph /  6.4 km/h 6.0 mph /  9.7 km/h 83 % 0.00 in /  0 mm 0 W/m2
08:19 39.7 °F /  4.3 °C 35.0 °F /  1.7 °C 29.70 in /  1005.6 hPa SSE 2.0 mph /  3.2 km/h 4.0 mph /  6.4 km/h 83 % 0.00 in /  0 mm 0 W/m2
08:23 39.6 °F /  4.2 °C 34.8 °F /  1.6 °C 29.70 in /  1005.6 hPa South 1.0 mph /  1.6 km/h 3.0 mph /  4.8 km/h 83 % 0.00 in /  0 mm 0 W/m2
08:28 39.6 °F /  4.2 °C 35.1 °F /  1.7 °C 29.71 in /  1006 hPa SSW 4.0 mph /  6.4 km/h 7.0 mph /  11.3 km/h 84 % 0.00 in /  0 mm 0 W/m2
08:29 39.6 °F /  4.2 °C 35.1 °F /  1.7 °C 29.71 in /  1006 hPa SSW 4.0 mph /  6.4 km/h 7.0 mph /  11.3 km/h 84 % 0.00 in /  0 mm 0 W/m2
08:34 39.6 °F /  4.2 °C 35.1 °F /  1.7 °C 29.71 in /  1006 hPa SSW 3.0 mph /  4.8 km/h 5.0 mph /  8 km/h 84 % 0.00 in /  0 mm 0 W/m2
08:40 39.6 °F /  4.2 °C 35.1 °F /  1.7 °C 29.71 in /  1006 hPa SSW 1.0 mph /  1.6 km/h 4.0 mph /  6.4 km/h 84 % 0.00 in /  0 mm 0 W/m2
08:45 39.6 °F /  4.2 °C 34.8 °F /  1.6 °C 29.71 in /  1006 hPa SSW 3.0 mph /  4.8 km/h 6.0 mph /  9.7 km/h 83 % 0.00 in /  0 mm 0 W/m2
08:47 39.7 °F /  4.3 °C 35.0 °F /  1.7 °C 29.71 in /  1006 hPa SSW 5.0 mph /  8 km/h 8.0 mph /  12.9 km/h 83 % 0.00 in /  0 mm 0 W/m2
08:51 39.7 °F /  4.3 °C 35.0 °F /  1.7 °C 29.70 in /  1005.6 hPa SW 3.0 mph /  4.8 km/h 6.0 mph /  9.7 km/h 83 % 0.00 in /  0 mm 0 W/m2
08:56 39.9 °F /  4.4 °C 34.9 °F /  1.6 °C 29.70 in /  1005.6 hPa Calm   4.0 mph /  6.4 km/h 82 % 0.00 in /  0 mm 0 W/m2
08:58 40.1 °F /  4.5 °C 35.0 °F /  1.7 °C 29.70 in /  1005.6 hPa Calm   2.0 mph /  3.2 km/h 82 % 0.00 in /  0 mm 0 W/m2
09:04 40.1 °F /  4.5 °C 34.7 °F /  1.5 °C 29.69 in /  1005.3 hPa East 3.0 mph /  4.8 km/h 5.0 mph /  8 km/h 81 % 0.00 in /  0 mm 0 W/m2
09:11 40.3 °F /  4.6 °C 34.9 °F /  1.6 °C 29.68 in /  1005 hPa SE 1.0 mph /  1.6 km/h 3.0 mph /  4.8 km/h 81 % 0.00 in /  0 mm 5 W/m2
09:12 40.3 °F /  4.6 °C 34.9 °F /  1.6 °C 29.68 in /  1005 hPa SE 1.0 mph /  1.6 km/h 3.0 mph /  4.8 km/h 81 % 0.00 in /  0 mm 5 W/m2
09:17 40.3 °F /  4.6 °C 35.2 °F /  1.8 °C 29.67 in /  1004.6 hPa Calm   2.0 mph /  3.2 km/h 82 % 0.00 in /  0 mm 7 W/m2
09:18 40.3 °F /  4.6 °C 35.2 °F /  1.8 °C 29.67 in /  1004.6 hPa Calm   2.0 mph /  3.2 km/h 82 % 0.00 in /  0 mm 7 W/m2
09:23 40.3 °F /  4.6 °C 35.2 °F /  1.8 °C 29.67 in /  1004.6 hPa Calm     82 % 0.00 in /  0 mm 11 W/m2
09:25 40.3 °F /  4.6 °C 35.2 °F /  1.8 °C 29.67 in /  1004.6 hPa Calm   1.0 mph /  1.6 km/h 82 % 0.00 in /  0 mm 11 W/m2
09:30 40.3 °F /  4.6 °C 35.5 °F /  1.9 °C 29.67 in /  1004.6 hPa South 3.0 mph /  4.8 km/h 8.0 mph /  12.9 km/h 83 % 0.00 in /  0 mm 11 W/m2
09:31 40.3 °F /  4.6 °C 35.5 °F /  1.9 °C 29.67 in /  1004.6 hPa South 3.0 mph /  4.8 km/h 6.0 mph /  9.7 km/h 83 % 0.00 in /  0 mm 11 W/m2
09:36 40.5 °F /  4.7 °C 35.7 °F /  2.1 °C 29.66 in /  1004.3 hPa South 2.0 mph /  3.2 km/h 5.0 mph /  8 km/h 83 % 0.00 in /  0 mm 11 W/m2
09:38 40.5 °F /  4.7 °C 35.7 °F /  2.1 °C 29.66 in /  1004.3 hPa South 2.0 mph /  3.2 km/h 5.0 mph /  8 km/h 83 % 0.00 in /  0 mm 11 W/m2
09:44 40.6 °F /  4.8 °C 35.9 °F /  2.2 °C 29.66 in /  1004.3 hPa SSW 2.0 mph /  3.2 km/h 7.0 mph /  11.3 km/h 83 % 0.00 in /  0 mm 9 W/m2
09:49 40.6 °F /  4.8 °C 35.6 °F /  2 °C 29.66 in /  1004.3 hPa SSW 9.0 mph /  14.5 km/h 13.0 mph /  20.9 km/h 82 % 0.00 in /  0 mm 9 W/m2
09:51 40.8 °F /  4.9 °C 35.7 °F /  2.1 °C 29.65 in /  1003.9 hPa SSW 6.0 mph /  9.7 km/h 11.0 mph /  17.7 km/h 82 % 0.00 in /  0 mm 9 W/m2
09:56 40.8 °F /  4.9 °C 35.7 °F /  2.1 °C 29.66 in /  1004.3 hPa SSW 6.0 mph /  9.7 km/h 9.0 mph /  14.5 km/h 82 % 0.00 in /  0 mm 7 W/m2
10:03 41.0 °F /  5 °C 35.9 °F /  2.2 °C 29.65 in /  1003.9 hPa SSW 7.0 mph /  11.3 km/h 13.0 mph /  20.9 km/h 82 % 0.00 in /  0 mm 12 W/m2
10:04 41.0 °F /  5 °C 35.9 °F /  2.2 °C 29.65 in /  1003.9 hPa SSW 9.0 mph /  14.5 km/h 15.0 mph /  24.1 km/h 82 % 0.00 in /  0 mm 14 W/m2
10:08 41.0 °F /  5 °C 35.9 °F /  2.2 °C 29.66 in /  1004.3 hPa SSW 11.0 mph /  17.7 km/h 19.0 mph /  30.6 km/h 82 % 0.00 in /  0 mm 16 W/m2
10:11 41.0 °F /  5 °C 35.9 °F /  2.2 °C 29.65 in /  1003.9 hPa SSW 9.0 mph /  14.5 km/h 14.0 mph /  22.5 km/h 82 % 0.00 in /  0 mm 14 W/m2
10:13 41.0 °F /  5 °C 35.9 °F /  2.2 °C 29.65 in /  1003.9 hPa SSW 11.0 mph /  17.7 km/h 20.0 mph /  32.2 km/h 82 % 0.00 in /  0 mm 16 W/m2
10:18 41.0 °F /  5 °C 35.9 °F /  2.2 °C 29.64 in /  1003.6 hPa South 6.0 mph /  9.7 km/h 8.0 mph /  12.9 km/h 82 % 0.00 in /  0 mm 18 W/m2
10:20 40.8 °F /  4.9 °C 35.7 °F /  2.1 °C 29.64 in /  1003.6 hPa South 6.0 mph /  9.7 km/h 8.0 mph /  12.9 km/h 82 % 0.00 in /  0 mm 19 W/m2
10:21 40.8 °F /  4.9 °C 35.7 °F /  2.1 °C 29.64 in /  1003.6 hPa SSE 5.0 mph /  8 km/h 10.0 mph /  16.1 km/h 82 % 0.00 in /  0 mm 19 W/m2
10:26 40.8 °F /  4.9 °C 35.7 °F /  2.1 °C 29.64 in /  1003.6 hPa SSE 6.0 mph /  9.7 km/h 10.0 mph /  16.1 km/h 82 % 0.00 in /  0 mm 16 W/m2
10:31 40.8 °F /  4.9 °C 36.1 °F /  2.3 °C 29.65 in /  1003.9 hPa South 7.0 mph /  11.3 km/h 10.0 mph /  16.1 km/h 83 % 0.00 in /  0 mm 14 W/m2
10:35 40.8 °F /  4.9 °C 36.4 °F /  2.4 °C 29.65 in /  1003.9 hPa South 5.0 mph /  8 km/h 9.0 mph /  14.5 km/h 84 % 0.00 in /  0 mm 12 W/m2
10:39 40.8 °F /  4.9 °C 36.4 °F /  2.4 °C 29.64 in /  1003.6 hPa SSE 5.0 mph /  8 km/h 9.0 mph /  14.5 km/h 84 % 0.00 in /  0 mm 16 W/m2
10:42 40.8 °F /  4.9 °C 36.7 °F /  2.6 °C 29.64 in /  1003.6 hPa SSE 6.0 mph /  9.7 km/h 8.0 mph /  12.9 km/h 85 % 0.00 in /  0 mm 18 W/m2
10:46 40.8 °F /  4.9 °C 37.0 °F /  2.8 °C 29.64 in /  1003.6 hPa SSE 6.0 mph /  9.7 km/h 9.0 mph /  14.5 km/h 86 % 0.01 in /  0.25 mm 30 W/m2
10:48 40.8 °F /  4.9 °C 37.0 °F /  2.8 °C 29.63 in /  1003.3 hPa SSE 6.0 mph /  9.7 km/h 11.0 mph /  17.7 km/h 86 % 0.01 in /  0.25 mm 33 W/m2
10:52 40.8 °F /  4.9 °C 37.3 °F /  2.9 °C 29.62 in /  1002.9 hPa SSE 7.0 mph /  11.3 km/h 12.0 mph /  19.3 km/h 87 % 0.01 in /  0.25 mm 35 W/m2
10:58 40.6 °F /  4.8 °C 37.4 °F /  3 °C 29.61 in /  1002.6 hPa South 8.0 mph /  12.9 km/h 12.0 mph /  19.3 km/h 88 % 0.01 in /  0.25 mm 28 W/m2
11:04 40.6 °F /  4.8 °C 37.7 °F /  3.2 °C 29.60 in /  1002.3 hPa SSE 8.0 mph /  12.9 km/h 12.0 mph /  19.3 km/h 89 % 0.02 in /  0.51 mm 30 W/m2
11:09 40.6 °F /  4.8 °C 37.7 °F /  3.2 °C 29.60 in /  1002.3 hPa South 9.0 mph /  14.5 km/h 15.0 mph /  24.1 km/h 89 % 0.02 in /  0.51 mm 39 W/m2
11:11 40.6 °F /  4.8 °C 37.7 °F /  3.2 °C 29.60 in /  1002.3 hPa South 9.0 mph /  14.5 km/h 14.0 mph /  22.5 km/h 89 % 0.02 in /  0.51 mm 39 W/m2
11:16 40.5 °F /  4.7 °C 37.8 °F /  3.2 °C 29.59 in /  1001.9 hPa South 9.0 mph /  14.5 km/h 18.0 mph /  29 km/h 90 % 0.02 in /  0.51 mm 35 W/m2
11:17 40.5 °F /  4.7 °C 37.8 °F /  3.2 °C 29.59 in /  1001.9 hPa South 9.0 mph /  14.5 km/h 14.0 mph /  22.5 km/h 90 % 0.02 in /  0.51 mm 33 W/m2
11:22 40.5 °F /  4.7 °C 37.8 °F /  3.2 °C 29.58 in /  1001.6 hPa SSE 9.0 mph /  14.5 km/h 14.0 mph /  22.5 km/h 90 % 0.02 in /  0.51 mm 40 W/m2
11:27 40.3 °F /  4.6 °C 37.9 °F /  3.3 °C 29.57 in /  1001.2 hPa SE 9.0 mph /  14.5 km/h 14.0 mph /  22.5 km/h 91 % 0.02 in /  0.51 mm 37 W/m2
11:32 40.3 °F /  4.6 °C 37.9 °F /  3.3 °C 29.57 in /  1001.2 hPa SE 9.0 mph /  14.5 km/h 14.0 mph /  22.5 km/h 91 % 0.02 in /  0.51 mm 42 W/m2
11:34 40.3 °F /  4.6 °C 37.9 °F /  3.3 °C 29.56 in /  1000.9 hPa SE 10.0 mph /  16.1 km/h 15.0 mph /  24.1 km/h 91 % 0.02 in /  0.51 mm 44 W/m2
11:37 40.3 °F /  4.6 °C 38.1 °F /  3.4 °C 29.56 in /  1000.9 hPa SSE 6.0 mph /  9.7 km/h 11.0 mph /  17.7 km/h 92 % 0.02 in /  0.51 mm 44 W/m2
11:42 40.3 °F /  4.6 °C 38.1 °F /  3.4 °C 29.56 in /  1000.9 hPa SSE 9.0 mph /  14.5 km/h 12.0 mph /  19.3 km/h 92 % 0.02 in /  0.51 mm 42 W/m2
11:45 40.5 °F /  4.7 °C 38.3 °F /  3.5 °C 29.55 in /  1000.6 hPa SSE 6.0 mph /  9.7 km/h 10.0 mph /  16.1 km/h 92 % 0.02 in /  0.51 mm 47 W/m2
11:46 40.5 °F /  4.7 °C 38.3 °F /  3.5 °C 29.55 in /  1000.6 hPa SSE 8.0 mph /  12.9 km/h 14.0 mph /  22.5 km/h 92 % 0.02 in /  0.51 mm 58 W/m2
11:51 40.5 °F /  4.7 °C 38.6 °F /  3.7 °C 29.54 in /  1000.2 hPa SSE 7.0 mph /  11.3 km/h 14.0 mph /  22.5 km/h 93 % 0.02 in /  0.51 mm 70 W/m2
11:56 40.5 °F /  4.7 °C 38.6 °F /  3.7 °C 29.54 in /  1000.2 hPa South 8.0 mph /  12.9 km/h 14.0 mph /  22.5 km/h 93 % 0.02 in /  0.51 mm 42 W/m2
11:57 40.5 °F /  4.7 °C 38.6 °F /  3.7 °C 29.54 in /  1000.2 hPa South 7.0 mph /  11.3 km/h 13.0 mph /  20.9 km/h 93 % 0.02 in /  0.51 mm 46 W/m2
12:00 40.5 °F /  4.7 °C 38.6 °F /  3.7 °C 29.53 in /  999.9 hPa SSE 8.0 mph /  12.9 km/h 15.0 mph /  24.1 km/h 93 % 0.02 in /  0.51 mm 67 W/m2
12:03 40.5 °F /  4.7 °C 38.6 °F /  3.7 °C 29.53 in /  999.9 hPa SSE 11.0 mph /  17.7 km/h 16.0 mph /  25.7 km/h 93 % 0.02 in /  0.51 mm 125 W/m2
12:14 40.6 °F /  4.8 °C 39.0 °F /  3.9 °C 29.52 in /  999.5 hPa South 9.0 mph /  14.5 km/h 18.0 mph /  29 km/h 94 % 0.01 in /  0.25 mm 49 W/m2
12:21 40.8 °F /  4.9 °C 39.2 °F /  4 °C 29.51 in /  999.2 hPa South 11.0 mph /  17.7 km/h 21.0 mph /  33.8 km/h 94 % 0.02 in /  0.51 mm 141 W/m2
12:26 40.8 °F /  4.9 °C 39.2 °F /  4 °C 29.51 in /  999.2 hPa South 10.0 mph /  16.1 km/h 21.0 mph /  33.8 km/h 94 % 0.02 in /  0.51 mm 88 W/m2
12:29 41.0 °F /  5 °C 39.4 °F /  4.1 °C 29.50 in /  998.9 hPa South 11.0 mph /  17.7 km/h 16.0 mph /  25.7 km/h 94 % 0.02 in /  0.51 mm 60 W/m2
12:35 41.0 °F /  5 °C 39.4 °F /  4.1 °C 29.50 in /  998.9 hPa SSW 11.0 mph /  17.7 km/h 22.0 mph /  35.4 km/h 94 % 0.02 in /  0.51 mm 49 W/m2
12:37 41.2 °F /  5.1 °C 39.6 °F /  4.2 °C 29.50 in /  998.9 hPa SSW 12.0 mph /  19.3 km/h 21.0 mph /  33.8 km/h 94 % 0.02 in /  0.51 mm 60 W/m2
12:39 41.2 °F /  5.1 °C 39.6 °F /  4.2 °C 29.50 in /  998.9 hPa South 9.0 mph /  14.5 km/h 15.0 mph /  24.1 km/h 94 % 0.02 in /  0.51 mm 54 W/m2
12:43 41.2 °F /  5.1 °C 39.6 °F /  4.2 °C 29.50 in /  998.9 hPa South 12.0 mph /  19.3 km/h 22.0 mph /  35.4 km/h 94 % 0.02 in /  0.51 mm 100 W/m2
12:49 41.2 °F /  5.1 °C 39.9 °F /  4.4 °C 29.49 in /  998.5 hPa SSW 11.0 mph /  17.7 km/h 18.0 mph /  29 km/h 95 % 0.02 in /  0.51 mm 86 W/m2
12:50 41.4 °F /  5.2 °C 40.0 °F /  4.4 °C 29.49 in /  998.5 hPa South 12.0 mph /  19.3 km/h 19.0 mph /  30.6 km/h 95 % 0.02 in /  0.51 mm 81 W/m2
12:55 41.4 °F /  5.2 °C 40.0 °F /  4.4 °C 29.48 in /  998.2 hPa South 11.0 mph /  17.7 km/h 18.0 mph /  29 km/h 95 % 0.02 in /  0.51 mm 35 W/m2
12:56 41.4 °F /  5.2 °C 40.0 °F /  4.4 °C 29.49 in /  998.5 hPa SSW 12.0 mph /  19.3 km/h 20.0 mph /  32.2 km/h 95 % 0.02 in /  0.51 mm 30 W/m2
13:01 41.4 °F /  5.2 °C 40.0 °F /  4.4 °C 29.48 in /  998.2 hPa SSW 12.0 mph /  19.3 km/h 21.0 mph /  33.8 km/h 95 % 0.03 in /  0.76 mm 77 W/m2
13:03 41.5 °F /  5.3 °C 40.2 °F /  4.6 °C 29.48 in /  998.2 hPa SSW 10.0 mph /  16.1 km/h 18.0 mph /  29 km/h 95 % 0.03 in /  0.76 mm 91 W/m2
13:05 41.5 °F /  5.3 °C 40.2 °F /  4.6 °C 29.48 in /  998.2 hPa SSW 10.0 mph /  16.1 km/h 19.0 mph /  30.6 km/h 95 % 0.03 in /  0.76 mm 86 W/m2
13:08 41.5 °F /  5.3 °C 40.2 °F /  4.6 °C 29.48 in /  998.2 hPa SSW 13.0 mph /  20.9 km/h 20.0 mph /  32.2 km/h 95 % 0.03 in /  0.76 mm 21 W/m2
13:10 41.7 °F /  5.4 °C 40.4 °F /  4.7 °C 29.48 in /  998.2 hPa SSW 10.0 mph /  16.1 km/h 14.0 mph /  22.5 km/h 95 % 0.03 in /  0.76 mm 26 W/m2
13:15 41.7 °F /  5.4 °C 40.4 °F /  4.7 °C 29.49 in /  998.5 hPa SSW 10.0 mph /  16.1 km/h 14.0 mph /  22.5 km/h 95 % 0.03 in /  0.76 mm 19 W/m2
13:17 41.7 °F /  5.4 °C 40.4 °F /  4.7 °C 29.48 in /  998.2 hPa SW 8.0 mph /  12.9 km/h 12.0 mph /  19.3 km/h 95 % 0.03 in /  0.76 mm 25 W/m2
13:20 41.7 °F /  5.4 °C 40.4 °F /  4.7 °C 29.49 in /  998.5 hPa SW 8.0 mph /  12.9 km/h 10.0 mph /  16.1 km/h 95 % 0.03 in /  0.76 mm 28 W/m2
13:24 41.9 °F /  5.5 °C 40.6 °F /  4.8 °C 29.48 in /  998.2 hPa SW 7.0 mph /  11.3 km/h 13.0 mph /  20.9 km/h 95 % 0.02 in /  0.51 mm 47 W/m2
13:25 41.9 °F /  5.5 °C 40.6 °F /  4.8 °C 29.48 in /  998.2 hPa SW 8.0 mph /  12.9 km/h 13.0 mph /  20.9 km/h 95 % 0.02 in /  0.51 mm 53 W/m2
13:30 42.1 °F /  5.6 °C 40.8 °F /  4.9 °C 29.48 in /  998.2 hPa SW 9.0 mph /  14.5 km/h 13.0 mph /  20.9 km/h 95 % 0.02 in /  0.51 mm 46 W/m2
13:34 42.3 °F /  5.7 °C 40.9 °F /  4.9 °C 29.48 in /  998.2 hPa SW 11.0 mph /  17.7 km/h 21.0 mph /  33.8 km/h 95 % 0.02 in /  0.51 mm 42 W/m2
13:37 42.3 °F /  5.7 °C 40.9 °F /  4.9 °C 29.48 in /  998.2 hPa SW 11.0 mph /  17.7 km/h 16.0 mph /  25.7 km/h 95 % 0.02 in /  0.51 mm 54 W/m2
13:39 42.4 °F /  5.8 °C 41.1 °F /  5.1 °C 29.48 in /  998.2 hPa WSW 9.0 mph /  14.5 km/h 13.0 mph /  20.9 km/h 95 % 0.02 in /  0.51 mm 37 W/m2
13:44 42.4 °F /  5.8 °C 41.1 °F /  5.1 °C 29.48 in /  998.2 hPa SW 10.0 mph /  16.1 km/h 14.0 mph /  22.5 km/h 95 % 0.02 in /  0.51 mm 26 W/m2
13:46 42.6 °F /  5.9 °C 41.3 °F /  5.2 °C 29.48 in /  998.2 hPa SW 10.0 mph /  16.1 km/h 16.0 mph /  25.7 km/h 95 % 0.01 in /  0.25 mm 25 W/m2
13:50 42.6 °F /  5.9 °C 41.3 °F /  5.2 °C 29.47 in /  997.9 hPa SW 13.0 mph /  20.9 km/h 19.0 mph /  30.6 km/h 95 % 0.01 in /  0.25 mm 28 W/m2
13:56 42.8 °F /  6 °C 41.5 °F /  5.3 °C 29.45 in /  997.2 hPa SW 11.0 mph /  17.7 km/h 16.0 mph /  25.7 km/h 95 % 0.00 in /  0 mm 58 W/m2
14:01 43.0 °F /  6.1 °C 41.6 °F /  5.3 °C 29.44 in /  996.8 hPa SW 10.0 mph /  16.1 km/h 16.0 mph /  25.7 km/h 95 % 0.00 in /  0 mm 69 W/m2
14:06 43.0 °F /  6.1 °C 41.4 °F /  5.2 °C 29.44 in /  996.8 hPa SW 10.0 mph /  16.1 km/h 16.0 mph /  25.7 km/h 94 % 0.00 in /  0 mm 58 W/m2
14:08 43.0 °F /  6.1 °C 41.4 °F /  5.2 °C 29.44 in /  996.8 hPa SW 8.0 mph /  12.9 km/h 11.0 mph /  17.7 km/h 94 % 0.00 in /  0 mm 63 W/m2
14:13 43.2 °F /  6.2 °C 41.6 °F /  5.3 °C 29.44 in /  996.8 hPa SW 9.0 mph /  14.5 km/h 12.0 mph /  19.3 km/h 94 % 0.00 in /  0 mm 62 W/m2
14:15 43.3 °F /  6.3 °C 41.7 °F /  5.4 °C 29.44 in /  996.8 hPa SW 9.0 mph /  14.5 km/h 15.0 mph /  24.1 km/h 94 % 0.00 in /  0 mm 51 W/m2
14:16 43.3 °F /  6.3 °C 41.7 °F /  5.4 °C 29.44 in /  996.8 hPa SW 9.0 mph /  14.5 km/h 15.0 mph /  24.1 km/h 94 % 0.00 in /  0 mm 62 W/m2
14:21 43.5 °F /  6.4 °C 41.9 °F /  5.5 °C 29.44 in /  996.8 hPa SW 9.0 mph /  14.5 km/h 14.0 mph /  22.5 km/h 94 % 0.00 in /  0 mm 63 W/m2
14:26 43.9 °F /  6.6 °C 42.3 °F /  5.7 °C 29.43 in /  996.5 hPa WSW 9.0 mph /  14.5 km/h 14.0 mph /  22.5 km/h 94 % 0.00 in /  0 mm 51 W/m2
14:33 44.2 °F /  6.8 °C 42.6 °F /  5.9 °C 29.43 in /  996.5 hPa SW 8.0 mph /  12.9 km/h 12.0 mph /  19.3 km/h 94 % 0.00 in /  0 mm 53 W/m2
14:34 44.2 °F /  6.8 °C 42.6 °F /  5.9 °C 29.43 in /  996.5 hPa WSW 8.0 mph /  12.9 km/h 12.0 mph /  19.3 km/h 94 % 0.00 in /  0 mm 63 W/m2
14:39 44.4 °F /  6.9 °C 42.5 °F /  5.8 °C 29.43 in /  996.5 hPa WSW 5.0 mph /  8 km/h 9.0 mph /  14.5 km/h 93 % 0.00 in /  0 mm 44 W/m2
14:40 44.4 °F /  6.9 °C 42.5 °F /  5.8 °C 29.43 in /  996.5 hPa WSW 5.0 mph /  8 km/h 9.0 mph /  14.5 km/h 93 % 0.00 in /  0 mm 44 W/m2
14:44 44.6 °F /  7 °C 42.7 °F /  5.9 °C 29.43 in /  996.5 hPa WSW 6.0 mph /  9.7 km/h 10.0 mph /  16.1 km/h 93 % 0.00 in /  0 mm 30 W/m2
14:51 44.8 °F /  7.1 °C 42.6 °F /  5.9 °C 29.43 in /  996.5 hPa WSW 6.0 mph /  9.7 km/h 8.0 mph /  12.9 km/h 92 % 0.00 in /  0 mm 18 W/m2
14:54 44.8 °F /  7.1 °C 42.6 °F /  5.9 °C 29.43 in /  996.5 hPa WSW 8.0 mph /  12.9 km/h 12.0 mph /  19.3 km/h 92 % 0.00 in /  0 mm 16 W/m2
14:55 44.8 °F /  7.1 °C 42.6 °F /  5.9 °C 29.43 in /  996.5 hPa WSW 8.0 mph /  12.9 km/h 11.0 mph /  17.7 km/h 92 % 0.00 in /  0 mm 16 W/m2
15:07 45.3 °F /  7.4 °C 43.1 °F /  6.2 °C 29.43 in /  996.5 hPa West 9.0 mph /  14.5 km/h 14.0 mph /  22.5 km/h 92 % 0.00 in /  0 mm 12 W/m2
15:09 45.3 °F /  7.4 °C 43.1 °F /  6.2 °C 29.43 in /  996.5 hPa West 10.0 mph /  16.1 km/h 14.0 mph /  22.5 km/h 92 % 0.00 in /  0 mm 12 W/m2
15:14 45.7 °F /  7.6 °C 43.5 °F /  6.4 °C 29.43 in /  996.5 hPa WSW 10.0 mph /  16.1 km/h 18.0 mph /  29 km/h 92 % 0.00 in /  0 mm 12 W/m2
15:16 45.9 °F /  7.7 °C 43.4 °F /  6.3 °C 29.43 in /  996.5 hPa West 11.0 mph /  17.7 km/h 18.0 mph /  29 km/h 91 % 0.00 in /  0 mm 12 W/m2
15:19 46.0 °F /  7.8 °C 43.6 °F /  6.4 °C 29.44 in /  996.8 hPa West 11.0 mph /  17.7 km/h 16.0 mph /  25.7 km/h 91 % 0.00 in /  0 mm 18 W/m2
15:24 46.2 °F /  7.9 °C 43.4 °F /  6.3 °C 29.44 in /  996.8 hPa West 9.0 mph /  14.5 km/h 14.0 mph /  22.5 km/h 90 % 0.00 in /  0 mm 19 W/m2
15:25 46.2 °F /  7.9 °C 43.4 °F /  6.3 °C 29.44 in /  996.8 hPa West 8.0 mph /  12.9 km/h 13.0 mph /  20.9 km/h 90 % 0.00 in /  0 mm 18 W/m2
15:29 46.2 °F /  7.9 °C 43.4 °F /  6.3 °C 29.44 in /  996.8 hPa WSW 10.0 mph /  16.1 km/h 14.0 mph /  22.5 km/h 90 % 0.00 in /  0 mm 14 W/m2
15:31 46.4 °F /  8 °C 43.6 °F /  6.4 °C 29.44 in /  996.8 hPa WSW 10.0 mph /  16.1 km/h 14.0 mph /  22.5 km/h 90 % 0.00 in /  0 mm 12 W/m2
15:34 46.4 °F /  8 °C 43.6 °F /  6.4 °C 29.44 in /  996.8 hPa West 10.0 mph /  16.1 km/h 15.0 mph /  24.1 km/h 90 % 0.00 in /  0 mm 11 W/m2
15:38 46.6 °F /  8.1 °C 43.5 °F /  6.4 °C 29.43 in /  996.5 hPa WSW 11.0 mph /  17.7 km/h 16.0 mph /  25.7 km/h 89 % 0.00 in /  0 mm 7 W/m2
15:43 46.8 °F /  8.2 °C 43.7 °F /  6.5 °C 29.42 in /  996.2 hPa West 9.0 mph /  14.5 km/h 14.0 mph /  22.5 km/h 89 % 0.00 in /  0 mm 5 W/m2
15:44 46.8 °F /  8.2 °C 43.7 °F /  6.5 °C 29.42 in /  996.2 hPa West 9.0 mph /  14.5 km/h 14.0 mph /  22.5 km/h 89 % 0.00 in /  0 mm 5 W/m2
15:49 46.8 °F /  8.2 °C 43.7 °F /  6.5 °C 29.42 in /  996.2 hPa WSW 9.0 mph /  14.5 km/h 15.0 mph /  24.1 km/h 89 % 0.00 in /  0 mm 0 W/m2
15:54 46.9 °F /  8.3 °C 43.9 °F /  6.6 °C 29.42 in /  996.2 hPa WSW 10.0 mph /  16.1 km/h 19.0 mph /  30.6 km/h 89 % 0.00 in /  0 mm 0 W/m2
15:56 46.9 °F /  8.3 °C 43.9 °F /  6.6 °C 29.42 in /  996.2 hPa WSW 11.0 mph /  17.7 km/h 20.0 mph /  32.2 km/h 89 % 0.00 in /  0 mm 0 W/m2
16:01 46.9 °F /  8.3 °C 43.9 °F /  6.6 °C 29.42 in /  996.2 hPa WSW 8.0 mph /  12.9 km/h 12.0 mph /  19.3 km/h 89 % 0.00 in /  0 mm 0 W/m2
16:05 47.1 °F /  8.4 °C 43.7 °F /  6.5 °C 29.41 in /  995.8 hPa WSW 11.0 mph /  17.7 km/h 22.0 mph /  35.4 km/h 88 % 0.00 in /  0 mm 0 W/m2
16:12 47.1 °F /  8.4 °C 43.7 °F /  6.5 °C 29.41 in /  995.8 hPa WSW 9.0 mph /  14.5 km/h 13.0 mph /  20.9 km/h 88 % 0.00 in /  0 mm 0 W/m2
16:13 47.1 °F /  8.4 °C 43.7 °F /  6.5 °C 29.41 in /  995.8 hPa West 11.0 mph /  17.7 km/h 21.0 mph /  33.8 km/h 88 % 0.00 in /  0 mm 0 W/m2
16:18 47.5 °F /  8.6 °C 44.1 °F /  6.7 °C 29.40 in /  995.5 hPa WSW 12.0 mph /  19.3 km/h 18.0 mph /  29 km/h 88 % 0.00 in /  0 mm 0 W/m2
16:23 47.5 °F /  8.6 °C 44.1 °F /  6.7 °C 29.40 in /  995.5 hPa WSW 13.0 mph /  20.9 km/h 24.0 mph /  38.6 km/h 88 % 0.00 in /  0 mm 0 W/m2
16:24 47.7 °F /  8.7 °C 44.0 °F /  6.7 °C 29.40 in /  995.5 hPa WSW 14.0 mph /  22.5 km/h 24.0 mph /  38.6 km/h 87 % 0.00 in /  0 mm 0 W/m2
16:29 47.8 °F /  8.8 °C 44.2 °F /  6.8 °C 29.40 in /  995.5 hPa WSW 15.0 mph /  24.1 km/h 22.0 mph /  35.4 km/h 87 % 0.00 in /  0 mm 0 W/m2
16:33 48.0 °F /  8.9 °C 44.0 °F /  6.7 °C 29.40 in /  995.5 hPa West 18.0 mph /  29 km/h 29.0 mph /  46.7 km/h 86 % 0.00 in /  0 mm 0 W/m2
16:35 48.0 °F /  8.9 °C 43.7 °F /  6.5 °C 29.39 in /  995.1 hPa WSW 18.0 mph /  29 km/h 27.0 mph /  43.5 km/h 85 % 0.00 in /  0 mm 0 W/m2
16:40 48.0 °F /  8.9 °C 43.4 °F /  6.3 °C 29.40 in /  995.5 hPa WSW 18.0 mph /  29 km/h 26.0 mph /  41.8 km/h 84 % 0.00 in /  0 mm 0 W/m2
16:41 48.0 °F /  8.9 °C 43.4 °F /  6.3 °C 29.39 in /  995.1 hPa West 17.0 mph /  27.4 km/h 26.0 mph /  41.8 km/h 84 % 0.00 in /  0 mm 0 W/m2
16:46 48.0 °F /  8.9 °C 43.7 °F /  6.5 °C 29.39 in /  995.1 hPa WSW 18.0 mph /  29 km/h 27.0 mph /  43.5 km/h 85 % 0.00 in /  0 mm 0 W/m2
16:47 48.0 °F /  8.9 °C 43.7 °F /  6.5 °C 29.39 in /  995.1 hPa WSW 17.0 mph /  27.4 km/h 27.0 mph /  43.5 km/h 85 % 0.00 in /  0 mm 0 W/m2
16:52 48.0 °F /  8.9 °C 43.7 °F /  6.5 °C 29.38 in /  994.8 hPa WSW 15.0 mph /  24.1 km/h 22.0 mph /  35.4 km/h 85 % 0.00 in /  0 mm 0 W/m2
16:53 47.8 °F /  8.8 °C 43.5 °F /  6.4 °C 29.38 in /  994.8 hPa WSW 15.0 mph /  24.1 km/h 22.0 mph /  35.4 km/h 85 % 0.00 in /  0 mm 0 W/m2
16:54 47.8 °F /  8.8 °C 43.5 °F /  6.4 °C 29.38 in /  994.8 hPa WSW 17.0 mph /  27.4 km/h 23.0 mph /  37 km/h 85 % 0.00 in /  0 mm 0 W/m2
16:59 47.8 °F /  8.8 °C 43.5 °F /  6.4 °C 29.38 in /  994.8 hPa WSW 17.0 mph /  27.4 km/h 25.0 mph /  40.2 km/h 85 % 0.00 in /  0 mm 0 W/m2
17:03 47.7 °F /  8.7 °C 43.4 °F /  6.3 °C 29.37 in /  994.5 hPa WSW 15.0 mph /  24.1 km/h 22.0 mph /  35.4 km/h 85 % 0.00 in /  0 mm 0 W/m2
17:08 47.7 °F /  8.7 °C 43.1 °F /  6.2 °C 29.37 in /  994.5 hPa WSW 15.0 mph /  24.1 km/h 22.0 mph /  35.4 km/h 84 % 0.00 in /  0 mm 0 W/m2
17:10 47.7 °F /  8.7 °C 43.1 °F /  6.2 °C 29.36 in /  994.1 hPa WSW 14.0 mph /  22.5 km/h 23.0 mph /  37 km/h 84 % 0.00 in /  0 mm 0 W/m2
17:30 47.7 °F /  8.7 °C 42.8 °F /  6 °C 29.35 in /  993.8 hPa WSW 9.0 mph /  14.5 km/h 12.0 mph /  19.3 km/h 83 % 0.00 in /  0 mm 0 W/m2
17:37 47.5 °F /  8.6 °C 42.6 °F /  5.9 °C 29.35 in /  993.8 hPa WSW 13.0 mph /  20.9 km/h 21.0 mph /  33.8 km/h 83 % 0.00 in /  0 mm 0 W/m2
17:38 47.5 °F /  8.6 °C 42.6 °F /  5.9 °C 29.35 in /  993.8 hPa WSW 14.0 mph /  22.5 km/h 21.0 mph /  33.8 km/h 83 % 0.00 in /  0 mm 0 W/m2
17:43 47.5 °F /  8.6 °C 42.6 °F /  5.9 °C 29.35 in /  993.8 hPa WSW 16.0 mph /  25.7 km/h 23.0 mph /  37 km/h 83 % 0.00 in /  0 mm 0 W/m2
17:44 47.5 °F /  8.6 °C 42.6 °F /  5.9 °C 29.35 in /  993.8 hPa WSW 17.0 mph /  27.4 km/h 24.0 mph /  38.6 km/h 83 % 0.00 in /  0 mm 0 W/m2
17:46 47.5 °F /  8.6 °C 42.3 °F /  5.7 °C 29.36 in /  994.1 hPa WSW 18.0 mph /  29 km/h 27.0 mph /  43.5 km/h 82 % 0.00 in /  0 mm 0 W/m2
17:50 47.5 °F /  8.6 °C 42.3 °F /  5.7 °C 29.35 in /  993.8 hPa WSW 13.0 mph /  20.9 km/h 19.0 mph /  30.6 km/h 82 % 0.00 in /  0 mm 0 W/m2
17:55 47.5 °F /  8.6 °C 42.3 °F /  5.7 °C 29.35 in /  993.8 hPa WSW 15.0 mph /  24.1 km/h 23.0 mph /  37 km/h 82 % 0.00 in /  0 mm 0 W/m2
17:58 47.3 °F /  8.5 °C 42.4 °F /  5.8 °C 29.35 in /  993.8 hPa WSW 11.0 mph /  17.7 km/h 16.0 mph /  25.7 km/h 83 % 0.00 in /  0 mm 0 W/m2
18:03 47.1 °F /  8.4 °C 42.2 °F /  5.7 °C 29.34 in /  993.5 hPa WSW 11.0 mph /  17.7 km/h 15.0 mph /  24.1 km/h 83 % 0.00 in /  0 mm 0 W/m2
18:09 47.1 °F /  8.4 °C 42.5 °F /  5.8 °C 29.34 in /  993.5 hPa WSW 12.0 mph /  19.3 km/h 21.0 mph /  33.8 km/h 84 % 0.00 in /  0 mm 0 W/m2
18:14 46.9 °F /  8.3 °C 42.4 °F /  5.8 °C 29.33 in /  993.1 hPa WSW 11.0 mph /  17.7 km/h 19.0 mph /  30.6 km/h 84 % 0.00 in /  0 mm 0 W/m2
18:20 46.9 °F /  8.3 °C 42.4 °F /  5.8 °C 29.33 in /  993.1 hPa WSW 13.0 mph /  20.9 km/h 19.0 mph /  30.6 km/h 84 % 0.00 in /  0 mm 0 W/m2
18:24 46.9 °F /  8.3 °C 42.4 °F /  5.8 °C 29.32 in /  992.8 hPa WSW 9.0 mph /  14.5 km/h 14.0 mph /  22.5 km/h 84 % 0.00 in /  0 mm 0 W/m2
18:26 46.9 °F /  8.3 °C 42.4 °F /  5.8 °C 29.32 in /  992.8 hPa WSW 10.0 mph /  16.1 km/h 16.0 mph /  25.7 km/h 84 % 0.00 in /  0 mm 0 W/m2
18:31 46.8 °F /  8.2 °C 42.5 °F /  5.8 °C 29.31 in /  992.4 hPa SW 11.0 mph /  17.7 km/h 16.0 mph /  25.7 km/h 85 % 0.00 in /  0 mm 0 W/m2
18:36 46.8 °F /  8.2 °C 42.5 °F /  5.8 °C 29.30 in /  992.1 hPa SW 11.0 mph /  17.7 km/h 18.0 mph /  29 km/h 85 % 0.00 in /  0 mm 0 W/m2
18:41 46.8 °F /  8.2 °C 42.8 °F /  6 °C 29.30 in /  992.1 hPa SW 10.0 mph /  16.1 km/h 15.0 mph /  24.1 km/h 86 % 0.00 in /  0 mm 0 W/m2
18:44 46.8 °F /  8.2 °C 42.8 °F /  6 °C 29.29 in /  991.8 hPa WSW 11.0 mph /  17.7 km/h 18.0 mph /  29 km/h 86 % 0.00 in /  0 mm 0 W/m2
18:51 46.6 °F /  8.1 °C 42.6 °F /  5.9 °C 29.29 in /  991.8 hPa SW 9.0 mph /  14.5 km/h 13.0 mph /  20.9 km/h 86 % 0.01 in /  0.25 mm 0 W/m2
18:56 46.6 °F /  8.1 °C 42.6 °F /  5.9 °C 29.28 in /  991.4 hPa SW 9.0 mph /  14.5 km/h 13.0 mph /  20.9 km/h 86 % 0.01 in /  0.25 mm 0 W/m2
18:58 46.6 °F /  8.1 °C 42.6 °F /  5.9 °C 29.28 in /  991.4 hPa SW 9.0 mph /  14.5 km/h 14.0 mph /  22.5 km/h 86 % 0.01 in /  0.25 mm 0 W/m2
19:07 46.2 °F /  7.9 °C 42.6 °F /  5.9 °C 29.27 in /  991.1 hPa SW 9.0 mph /  14.5 km/h 12.0 mph /  19.3 km/h 87 % 0.01 in /  0.25 mm 0 W/m2
19:08 46.2 °F /  7.9 °C 42.6 °F /  5.9 °C 29.26 in /  990.7 hPa SSW 9.0 mph /  14.5 km/h 13.0 mph /  20.9 km/h 87 % 0.01 in /  0.25 mm 0 W/m2
19:13 46.2 °F /  7.9 °C 42.9 °F /  6.1 °C 29.26 in /  990.7 hPa South 10.0 mph /  16.1 km/h 21.0 mph /  33.8 km/h 88 % 0.01 in /  0.25 mm 0 W/m2
19:14 46.2 °F /  7.9 °C 42.9 °F /  6.1 °C 29.26 in /  990.7 hPa SSW 12.0 mph /  19.3 km/h 21.0 mph /  33.8 km/h 88 % 0.01 in /  0.25 mm 0 W/m2
19:20 46.2 °F /  7.9 °C 42.9 °F /  6.1 °C 29.26 in /  990.7 hPa South 10.0 mph /  16.1 km/h 18.0 mph /  29 km/h 88 % 0.01 in /  0.25 mm 0 W/m2
19:25 46.2 °F /  7.9 °C 43.2 °F /  6.2 °C 29.24 in /  990.1 hPa South 8.0 mph /  12.9 km/h 13.0 mph /  20.9 km/h 89 % 0.01 in /  0.25 mm 0 W/m2
19:28 46.2 °F /  7.9 °C 43.2 °F /  6.2 °C 29.24 in /  990.1 hPa South 8.0 mph /  12.9 km/h 13.0 mph /  20.9 km/h 89 % 0.01 in /  0.25 mm 0 W/m2
19:31 46.2 °F /  7.9 °C 43.2 °F /  6.2 °C 29.23 in /  989.7 hPa SSE 10.0 mph /  16.1 km/h 15.0 mph /  24.1 km/h 89 % 0.01 in /  0.25 mm 0 W/m2
19:36 46.2 °F /  7.9 °C 43.2 °F /  6.2 °C 29.22 in /  989.4 hPa SSE 10.0 mph /  16.1 km/h 15.0 mph /  24.1 km/h 89 % 0.01 in /  0.25 mm 0 W/m2
19:37 46.2 °F /  7.9 °C 43.4 °F /  6.3 °C 29.22 in /  989.4 hPa SSE 10.0 mph /  16.1 km/h 14.0 mph /  22.5 km/h 90 % 0.01 in /  0.25 mm 0 W/m2
19:42 46.0 °F /  7.8 °C 43.3 °F /  6.3 °C 29.21 in /  989.1 hPa SSE 7.0 mph /  11.3 km/h 10.0 mph /  16.1 km/h 90 % 0.01 in /  0.25 mm 0 W/m2
19:44 46.0 °F /  7.8 °C 43.3 °F /  6.3 °C 29.21 in /  989.1 hPa SSE 6.0 mph /  9.7 km/h 8.0 mph /  12.9 km/h 90 % 0.01 in /  0.25 mm 0 W/m2
19:49 45.9 °F /  7.7 °C 43.1 °F /  6.2 °C 29.19 in /  988.4 hPa SE 5.0 mph /  8 km/h 8.0 mph /  12.9 km/h 90 % 0.00 in /  0 mm 0 W/m2
19:50 45.9 °F /  7.7 °C 43.1 °F /  6.2 °C 29.19 in /  988.4 hPa SE 5.0 mph /  8 km/h 8.0 mph /  12.9 km/h 90 % 0.00 in /  0 mm 0 W/m2
19:53 45.9 °F /  7.7 °C 43.1 °F /  6.2 °C 29.18 in /  988 hPa ESE 6.0 mph /  9.7 km/h 9.0 mph /  14.5 km/h 90 % 0.00 in /  0 mm 0 W/m2
19:58 45.9 °F /  7.7 °C 43.4 °F /  6.3 °C 29.17 in /  987.7 hPa ESE 7.0 mph /  11.3 km/h 10.0 mph /  16.1 km/h 91 % 0.00 in /  0 mm 0 W/m2
20:00 45.7 °F /  7.6 °C 43.2 °F /  6.2 °C 29.17 in /  987.7 hPa SE 7.0 mph /  11.3 km/h 10.0 mph /  16.1 km/h 91 % 0.00 in /  0 mm 0 W/m2
20:05 45.7 °F /  7.6 °C 43.2 °F /  6.2 °C 29.16 in /  987.4 hPa SE 8.0 mph /  12.9 km/h 12.0 mph /  19.3 km/h 91 % 0.00 in /  0 mm 0 W/m2
20:09 45.7 °F /  7.6 °C 43.5 °F /  6.4 °C 29.15 in /  987 hPa SE 10.0 mph /  16.1 km/h 14.0 mph /  22.5 km/h 92 % 0.01 in /  0.25 mm 0 W/m2
20:14 45.5 °F /  7.5 °C 43.3 °F /  6.3 °C 29.14 in /  986.7 hPa SE 10.0 mph /  16.1 km/h 14.0 mph /  22.5 km/h 92 % 0.01 in /  0.25 mm 0 W/m2
20:19 45.3 °F /  7.4 °C 43.1 °F /  6.2 °C 29.14 in /  986.7 hPa SE 9.0 mph /  14.5 km/h 13.0 mph /  20.9 km/h 92 % 0.01 in /  0.25 mm 0 W/m2
20:24 45.3 °F /  7.4 °C 43.4 °F /  6.3 °C 29.13 in /  986.3 hPa SSE 10.0 mph /  16.1 km/h 18.0 mph /  29 km/h 93 % 0.01 in /  0.25 mm 0 W/m2
20:25 45.3 °F /  7.4 °C 43.4 °F /  6.3 °C 29.13 in /  986.3 hPa SSE 10.0 mph /  16.1 km/h 18.0 mph /  29 km/h 93 % 0.01 in /  0.25 mm 0 W/m2
20:31 45.3 °F /  7.4 °C 43.4 °F /  6.3 °C 29.12 in /  986 hPa SSE 10.0 mph /  16.1 km/h 13.0 mph /  20.9 km/h 93 % 0.01 in /  0.25 mm 0 W/m2
20:36 45.3 °F /  7.4 °C 43.7 °F /  6.5 °C 29.10 in /  985.3 hPa South 10.0 mph /  16.1 km/h 18.0 mph /  29 km/h 94 % 0.01 in /  0.25 mm 0 W/m2
20:37 45.3 °F /  7.4 °C 43.7 °F /  6.5 °C 29.10 in /  985.3 hPa South 10.0 mph /  16.1 km/h 18.0 mph /  29 km/h 94 % 0.01 in /  0.25 mm 0 W/m2
20:39 45.3 °F /  7.4 °C 43.7 °F /  6.5 °C 29.10 in /  985.3 hPa SSE 11.0 mph /  17.7 km/h 22.0 mph /  35.4 km/h 94 % 0.02 in /  0.51 mm 0 W/m2
20:42 45.3 °F /  7.4 °C 43.7 °F /  6.5 °C 29.09 in /  985 hPa SSE 9.0 mph /  14.5 km/h 15.0 mph /  24.1 km/h 94 % 0.02 in /  0.51 mm 0 W/m2
20:47 45.3 °F /  7.4 °C 43.7 °F /  6.5 °C 29.08 in /  984.6 hPa South 11.0 mph /  17.7 km/h 16.0 mph /  25.7 km/h 94 % 0.03 in /  0.76 mm 0 W/m2
20:49 45.3 °F /  7.4 °C 43.7 °F /  6.5 °C 29.08 in /  984.6 hPa South 12.0 mph /  19.3 km/h 18.0 mph /  29 km/h 94 % 0.03 in /  0.76 mm 0 W/m2
20:52 45.3 °F /  7.4 °C 43.7 °F /  6.5 °C 29.07 in /  984.3 hPa South 10.0 mph /  16.1 km/h 16.0 mph /  25.7 km/h 94 % 0.03 in /  0.76 mm 0 W/m2
20:56 45.5 °F /  7.5 °C 43.9 °F /  6.6 °C 29.07 in /  984.3 hPa South 11.0 mph /  17.7 km/h 21.0 mph /  33.8 km/h 94 % 0.03 in /  0.76 mm 0 W/m2
21:01 45.5 °F /  7.5 °C 43.9 °F /  6.6 °C 29.06 in /  984 hPa South 11.0 mph /  17.7 km/h 20.0 mph /  32.2 km/h 94 % 0.03 in /  0.76 mm 0 W/m2
21:05 45.7 °F /  7.6 °C 44.1 °F /  6.7 °C 29.04 in /  983.3 hPa South 11.0 mph /  17.7 km/h 20.0 mph /  32.2 km/h 94 % 0.03 in /  0.76 mm 0 W/m2
21:12 46.0 °F /  7.8 °C 44.4 °F /  6.9 °C 29.03 in /  983 hPa SSW 16.0 mph /  25.7 km/h 25.0 mph /  40.2 km/h 94 % 0.02 in /  0.51 mm 0 W/m2
21:15 46.2 °F /  7.9 °C 44.6 °F /  7 °C 29.03 in /  983 hPa SSW 14.0 mph /  22.5 km/h 27.0 mph /  43.5 km/h 94 % 0.02 in /  0.51 mm 0 W/m2
21:19 46.4 °F /  8 °C 44.8 °F /  7.1 °C 29.02 in /  982.6 hPa SSW 14.0 mph /  22.5 km/h 25.0 mph /  40.2 km/h 94 % 0.02 in /  0.51 mm 0 W/m2
21:29 46.9 °F /  8.3 °C 45.0 °F /  7.2 °C 29.00 in /  981.9 hPa SSW 16.0 mph /  25.7 km/h 26.0 mph /  41.8 km/h 93 % 0.02 in /  0.51 mm 0 W/m2
21:34 47.3 °F /  8.5 °C 45.1 °F /  7.3 °C 28.99 in /  981.6 hPa SSW 13.0 mph /  20.9 km/h 23.0 mph /  37 km/h 92 % 0.02 in /  0.51 mm 0 W/m2
21:36 47.5 °F /  8.6 °C 45.3 °F /  7.4 °C 28.99 in /  981.6 hPa SSW 16.0 mph /  25.7 km/h 28.0 mph /  45.1 km/h 92 % 0.02 in /  0.51 mm 0 W/m2
21:41 47.7 °F /  8.7 °C 45.5 °F /  7.5 °C 28.99 in /  981.6 hPa SW 14.0 mph /  22.5 km/h 20.0 mph /  32.2 km/h 92 % 0.01 in /  0.25 mm 0 W/m2
21:46 48.0 °F /  8.9 °C 45.8 °F /  7.7 °C 29.00 in /  981.9 hPa SSW 18.0 mph /  29 km/h 25.0 mph /  40.2 km/h 92 % 0.02 in /  0.51 mm 0 W/m2
21:48 48.0 °F /  8.9 °C 45.8 °F /  7.7 °C 28.99 in /  981.6 hPa SW 15.0 mph /  24.1 km/h 25.0 mph /  40.2 km/h 92 % 0.02 in /  0.51 mm 0 W/m2
21:49 48.0 °F /  8.9 °C 45.8 °F /  7.7 °C 29.00 in /  981.9 hPa SW 15.0 mph /  24.1 km/h 25.0 mph /  40.2 km/h 92 % 0.02 in /  0.51 mm 0 W/m2
21:54 48.2 °F /  9 °C 46.3 °F /  7.9 °C 29.00 in /  981.9 hPa SSW 16.0 mph /  25.7 km/h 24.0 mph /  38.6 km/h 93 % 0.03 in /  0.76 mm 0 W/m2
21:59 48.2 °F /  9 °C 46.3 °F /  7.9 °C 29.00 in /  981.9 hPa SW 16.0 mph /  25.7 km/h 24.0 mph /  38.6 km/h 93 % 0.05 in /  1.27 mm 0 W/m2
22:00 48.4 °F /  9.1 °C 46.4 °F /  8 °C 29.00 in /  981.9 hPa SW 16.0 mph /  25.7 km/h 24.0 mph /  38.6 km/h 93 % 0.05 in /  1.27 mm 0 W/m2
22:05 48.4 °F /  9.1 °C 46.4 °F /  8 °C 29.00 in /  981.9 hPa WSW 16.0 mph /  25.7 km/h 27.0 mph /  43.5 km/h 93 % 0.05 in /  1.27 mm 0 W/m2
22:07 48.6 °F /  9.2 °C 46.6 °F /  8.1 °C 29.00 in /  981.9 hPa West 16.0 mph /  25.7 km/h 27.0 mph /  43.5 km/h 93 % 0.05 in /  1.27 mm 0 W/m2
22:08 48.6 °F /  9.2 °C 46.6 °F /  8.1 °C 29.00 in /  981.9 hPa WSW 16.0 mph /  25.7 km/h 27.0 mph /  43.5 km/h 93 % 0.05 in /  1.27 mm 0 W/m2
22:13 48.9 °F /  9.4 °C 46.7 °F /  8.2 °C 28.99 in /  981.6 hPa WSW 16.0 mph /  25.7 km/h 32.0 mph /  51.5 km/h 92 % 0.05 in /  1.27 mm 0 W/m2
22:18 49.1 °F /  9.5 °C 46.3 °F /  7.9 °C 29.00 in /  981.9 hPa West 23.0 mph /  37 km/h 33.0 mph /  53.1 km/h 90 % 0.06 in /  1.52 mm 0 W/m2
22:21 49.5 °F /  9.7 °C 46.1 °F /  7.8 °C 28.99 in /  981.6 hPa WSW 23.0 mph /  37 km/h 31.0 mph /  49.9 km/h 88 % 0.06 in /  1.52 mm 0 W/m2
22:24 49.5 °F /  9.7 °C 45.8 °F /  7.7 °C 28.99 in /  981.6 hPa West 19.0 mph /  30.6 km/h 31.0 mph /  49.9 km/h 87 % 0.06 in /  1.52 mm 0 W/m2
22:27 49.5 °F /  9.7 °C 45.4 °F /  7.4 °C 28.99 in /  981.6 hPa West 18.0 mph /  29 km/h 31.0 mph /  49.9 km/h 86 % 0.06 in /  1.52 mm 0 W/m2
22:29 49.5 °F /  9.7 °C 45.4 °F /  7.4 °C 28.99 in /  981.6 hPa West 21.0 mph /  33.8 km/h 31.0 mph /  49.9 km/h 86 % 0.06 in /  1.52 mm 0 W/m2
22:34 49.3 °F /  9.6 °C 45.3 °F /  7.4 °C 28.99 in /  981.6 hPa West 22.0 mph /  35.4 km/h 33.0 mph /  53.1 km/h 86 % 0.06 in /  1.52 mm 0 W/m2
22:35 49.3 °F /  9.6 °C 45.3 °F /  7.4 °C 28.99 in /  981.6 hPa West 19.0 mph /  30.6 km/h 30.0 mph /  48.3 km/h 86 % 0.06 in /  1.52 mm 0 W/m2
22:40 48.9 °F /  9.4 °C 44.9 °F /  7.2 °C 28.99 in /  981.6 hPa West 22.0 mph /  35.4 km/h 39.0 mph /  62.8 km/h 86 % 0.06 in /  1.52 mm 0 W/m2
22:41 48.9 °F /  9.4 °C 44.9 °F /  7.2 °C 28.99 in /  981.6 hPa West 23.0 mph /  37 km/h 39.0 mph /  62.8 km/h 86 % 0.06 in /  1.52 mm 0 W/m2
22:46 48.6 °F /  9.2 °C 43.9 °F /  6.6 °C 28.99 in /  981.6 hPa West 21.0 mph /  33.8 km/h 33.0 mph /  53.1 km/h 84 % 0.04 in /  1.02 mm 0 W/m2
22:48 48.6 °F /  9.2 °C 43.9 °F /  6.6 °C 28.99 in /  981.6 hPa West 21.0 mph /  33.8 km/h 38.0 mph /  61.2 km/h 84 % 0.03 in /  0.76 mm 0 W/m2
22:53 48.2 °F /  9 °C 43.0 °F /  6.1 °C 28.99 in /  981.6 hPa West 18.0 mph /  29 km/h 30.0 mph /  48.3 km/h 82 % 0.02 in /  0.51 mm 0 W/m2
23:00 48.0 °F /  8.9 °C 42.5 °F /  5.8 °C 28.98 in /  981.3 hPa West 21.0 mph /  33.8 km/h 33.0 mph /  53.1 km/h 81 % 0.01 in /  0.25 mm 0 W/m2
23:03 48.0 °F /  8.9 °C 42.5 °F /  5.8 °C 28.98 in /  981.3 hPa West 20.0 mph /  32.2 km/h 28.0 mph /  45.1 km/h 81 % 0.01 in /  0.25 mm 0 W/m2
23:07 47.8 °F /  8.8 °C 42.0 °F /  5.6 °C 28.98 in /  981.3 hPa West 24.0 mph /  38.6 km/h 34.0 mph /  54.7 km/h 80 % 0.01 in /  0.25 mm 0 W/m2
23:14 48.0 °F /  8.9 °C 41.5 °F /  5.3 °C 28.98 in /  981.3 hPa West 21.0 mph /  33.8 km/h 36.0 mph /  57.9 km/h 78 % 0.00 in /  0 mm 0 W/m2
23:18 47.8 °F /  8.8 °C 41.0 °F /  5 °C 28.99 in /  981.6 hPa West 23.0 mph /  37 km/h 40.0 mph /  64.4 km/h 77 % 0.00 in /  0 mm 0 W/m2
23:19 47.8 °F /  8.8 °C 41.0 °F /  5 °C 28.97 in /  980.9 hPa West 24.0 mph /  38.6 km/h 35.0 mph /  56.3 km/h 77 % 0.00 in /  0 mm 0 W/m2
23:23 47.7 °F /  8.7 °C 40.5 °F /  4.7 °C 28.98 in /  981.3 hPa West 25.0 mph /  40.2 km/h 38.0 mph /  61.2 km/h 76 % 0.00 in /  0 mm 0 W/m2
23:27 47.7 °F /  8.7 °C 40.1 °F /  4.5 °C 28.97 in /  980.9 hPa West 24.0 mph /  38.6 km/h 37.0 mph /  59.5 km/h 75 % 0.00 in /  0 mm 0 W/m2
23:32 47.5 °F /  8.6 °C 39.9 °F /  4.4 °C 28.97 in /  980.9 hPa West 26.0 mph /  41.8 km/h 42.0 mph /  67.6 km/h 75 % 0.00 in /  0 mm 0 W/m2
23:33 47.7 °F /  8.7 °C 40.1 °F /  4.5 °C 28.96 in /  980.6 hPa West 27.0 mph /  43.5 km/h 42.0 mph /  67.6 km/h 75 % 0.00 in /  0 mm 0 W/m2
23:38 47.7 °F /  8.7 °C 39.8 °F /  4.3 °C 28.96 in /  980.6 hPa West 27.0 mph /  43.5 km/h 39.0 mph /  62.8 km/h 74 % 0.00 in /  0 mm 0 W/m2
23:42 47.7 °F /  8.7 °C 39.8 °F /  4.3 °C 28.96 in /  980.6 hPa West 26.0 mph /  41.8 km/h 37.0 mph /  59.5 km/h 74 % 0.00 in /  0 mm 0 W/m2
23:47 47.5 °F /  8.6 °C 39.9 °F /  4.4 °C 28.97 in /  980.9 hPa West 28.0 mph /  45.1 km/h 42.0 mph /  67.6 km/h 75 % 0.00 in /  0 mm 0 W/m2
23:48 47.5 °F /  8.6 °C 39.9 °F /  4.4 °C 28.96 in /  980.6 hPa West 29.0 mph /  46.7 km/h 42.0 mph /  67.6 km/h 75 % 0.00 in /  0 mm 0 W/m2
23:51 47.3 °F /  8.5 °C 39.8 °F /  4.3 °C 28.96 in /  980.6 hPa West 24.0 mph /  38.6 km/h 33.0 mph /  53.1 km/h 75 % 0.00 in /  0 mm 0 W/m2
23:56 47.1 °F /  8.4 °C 39.9 °F /  4.4 °C 28.96 in /  980.6 hPa West 22.0 mph /  35.4 km/h 31.0 mph /  49.9 km/h 76 % 0.00 in /  0 mm 0 W/m2
23:59 47.1 °F /  8.4 °C 39.9 °F /  4.4 °C 28.96 in /  980.6 hPa West 23.0 mph /  37 km/h 33.0 mph /  53.1 km/h 76 % 0.00 in /  0 mm 0 W/m2
Delerius-Weather
Compliments of Weather Underground - 2.75 mb

Data updates at regular intervals.